Orlando International Airport
KMCO : now visible

Airfield :











YOU CAN JOIN US ON...

 
LOGIN :

Register | Disclaimer

   EN    FR    IT 

 









Legend :    VFR   Marginal VFR   IFR   Intensive IFR   Very Intensive IFR
Visi :
Ceiling :
>= 8 km
>= 3000ft
5 to 8 km
1000 to 3000 ft
1500m to 5 km
500 to 1000 ft
800 to 1500m
200 to 500 ft
< 800m
< 200 ft
Symbols :   Thunderstorms  Fog  Heavy snow  Heavy precipitations  Wind > 20 kt






- Airport Elevation : 96 ft
- IATA code : MCO


KMCO - Orlando International

CURRENT METAR :
  • 281053Z 08005KT 10SM FEW010 SCT250 23/23 A3006 RMK AO2 SLP176 T02330233

EXPIRED METARs :
  • 280953Z 07004KT 10SM FEW010 FEW250 23/23 A3006 RMK AO2 SLP178 T02330233

TAF KMCO
Valid from the 28 at 12:00 until the 29 at 18:00 UTC


281123Z 2812/2918 09007KT P6SM FEW010 FEW020 FEW250
FM281500 12010KT P6SM SCT020 SCT060
FM290000 13006KT P6SM FEW030
FM290800 16005KT P6SM FEW020 FEW250
FM291500 19011KT P6SM FEW020 SCT250
KZMA FIR / North America



MET'MAP, your aeronautical weather chart ! - Copyright ORBIFLY December 2007 - Disclaimer

ORBIFLY MET'MAP TEAM :

Programming & Development : Alexandra Zaïnal
Concept & original design : Baudouin d'Aumeries
Assistance for programming : Marc-Olivier Méhu
Technical & hardware support : Manuel Goepfert

Contact : metmap@orbifly.com




SOURCES & CREDITS :

   NOAA       Earth
Advisory